createdAt,value
2018-06-14T00:02:46.433Z,1.43
2018-06-14T00:07:48.952Z,1.93
2018-06-14T00:12:51.488Z,1.50
2018-06-14T00:17:54.134Z,1.50
2018-06-14T00:22:56.662Z,1.90
2018-06-14T00:27:59.231Z,1.30
2018-06-14T00:33:01.785Z,1.60
2018-06-14T00:38:04.326Z,1.33
2018-06-14T00:43:07.631Z,1.60
2018-06-14T00:48:10.178Z,1.70
2018-06-14T00:53:12.721Z,1.60
2018-06-14T00:58:15.265Z,1.50
2018-06-14T01:03:17.803Z,1.70
2018-06-14T01:08:20.357Z,1.40
2018-06-14T01:13:22.894Z,2.10
2018-06-14T01:18:25.456Z,1.57
2018-06-14T01:23:28.007Z,1.50
2018-06-14T01:28:30.571Z,1.47
2018-06-14T01:33:33.126Z,1.53
2018-06-14T01:38:35.685Z,1.50
2018-06-14T01:43:38.218Z,1.47
2018-06-14T01:48:40.789Z,2.03
2018-06-14T01:53:43.311Z,2.87
2018-06-14T01:58:45.865Z,1.70
2018-06-14T02:03:48.398Z,1.73
2018-06-14T02:08:50.957Z,1.83
2018-06-14T02:13:53.497Z,1.60
2018-06-14T02:18:56.066Z,1.67
2018-06-14T02:23:58.607Z,1.80
2018-06-14T02:29:01.162Z,2.10
2018-06-14T02:34:03.692Z,1.77
2018-06-14T02:39:06.329Z,1.63
2018-06-14T02:44:08.877Z,2.30
2018-06-14T02:49:11.436Z,1.93
2018-06-14T02:54:13.984Z,1.77
2018-06-14T02:59:16.533Z,2.30
2018-06-14T03:04:19.095Z,2.03
2018-06-14T03:09:21.640Z,2.33
2018-06-14T03:14:24.175Z,1.53
2018-06-14T03:19:27.102Z,2.57
2018-06-14T03:24:29.648Z,2.50
2018-06-14T03:29:32.204Z,2.10
2018-06-14T03:34:34.731Z,1.70
2018-06-14T03:39:37.269Z,1.90
2018-06-14T03:44:39.802Z,1.80
2018-06-14T03:49:42.336Z,2.20
2018-06-14T03:54:44.863Z,2.10
2018-06-14T03:59:47.398Z,1.60
2018-06-14T04:04:49.953Z,1.87
2018-06-14T04:09:52.501Z,2.30
2018-06-14T04:14:55.038Z,2.60
2018-06-14T04:19:58.355Z,3.00
2018-06-14T04:25:01.692Z,2.17
2018-06-14T04:30:04.227Z,1.97
2018-06-14T04:35:06.754Z,2.87
2018-06-14T04:40:09.288Z,2.20
2018-06-14T04:45:12.606Z,2.23
2018-06-14T04:50:15.170Z,2.40
2018-06-14T04:55:19.220Z,2.50
2018-06-14T05:00:22.539Z,3.20
2018-06-14T05:05:25.833Z,3.13
2018-06-14T05:10:28.369Z,2.00
2018-06-14T05:15:32.660Z,3.10
2018-06-14T05:20:35.201Z,2.03
2018-06-14T05:25:37.734Z,2.30
2018-06-14T05:30:40.255Z,2.73
2018-06-14T05:35:42.797Z,2.53
2018-06-14T05:40:45.332Z,2.20
2018-06-14T05:45:47.865Z,2.40
2018-06-14T05:50:50.416Z,2.73
2018-06-14T05:55:52.936Z,2.27
2018-06-14T06:00:55.462Z,2.80
2018-06-14T06:05:58.016Z,2.17
2018-06-14T06:11:00.556Z,2.83
2018-06-14T06:16:03.107Z,2.30
2018-06-14T06:21:05.737Z,2.10
2018-06-14T06:26:08.346Z,2.43
2018-06-14T06:31:10.810Z,3.00
2018-06-14T06:36:13.385Z,2.70
2018-06-14T06:41:15.987Z,3.00
2018-06-14T06:46:18.509Z,2.70
2018-06-14T06:51:21.821Z,2.30
2018-06-14T06:56:24.359Z,2.67
2018-06-14T07:01:26.906Z,3.03
2018-06-14T07:06:30.249Z,3.23
2018-06-14T07:11:32.806Z,2.67
2018-06-14T07:16:36.062Z,3.30
2018-06-14T07:21:38.607Z,2.53
2018-06-14T07:26:41.124Z,3.10
2018-06-14T07:31:43.660Z,2.53
2018-06-14T07:36:46.188Z,2.90
2018-06-14T07:41:48.725Z,2.60
2018-06-14T07:46:51.268Z,2.70
2018-06-14T07:51:53.803Z,3.20
2018-06-14T07:56:56.332Z,3.17
2018-06-14T08:01:58.916Z,3.03
2018-06-14T08:07:01.460Z,2.90
2018-06-14T08:12:03.989Z,2.70
2018-06-14T08:17:06.534Z,3.13
2018-06-14T08:22:09.870Z,2.70
2018-06-14T08:27:12.419Z,3.07
2018-06-14T08:32:14.959Z,2.90
2018-06-14T08:37:17.497Z,2.97
2018-06-14T08:42:20.022Z,3.13
2018-06-14T08:47:22.585Z,2.97
2018-06-14T08:52:25.124Z,2.53
2018-06-14T08:57:27.655Z,2.17
2018-06-14T09:02:30.182Z,1.93
2018-06-14T09:07:32.731Z,2.23
2018-06-14T09:12:35.267Z,2.00
2018-06-14T09:17:37.796Z,2.20
2018-06-14T09:22:40.333Z,1.67
2018-06-14T09:27:42.898Z,2.13
2018-06-14T09:32:45.497Z,1.50
2018-06-14T09:37:48.043Z,1.23
2018-06-14T09:42:50.632Z,2.13
2018-06-14T09:47:53.131Z,2.47
2018-06-14T09:52:55.661Z,1.83
2018-06-14T09:57:58.196Z,1.40
2018-06-14T10:03:00.732Z,1.87
2018-06-14T10:08:03.291Z,1.90
2018-06-14T10:13:05.889Z,1.93
2018-06-14T10:18:08.422Z,1.57
2018-06-14T10:23:10.995Z,1.30
2018-06-14T10:28:13.530Z,1.60
2018-06-14T10:33:16.060Z,1.60
2018-06-14T10:38:18.595Z,1.70
2018-06-14T10:43:21.148Z,1.60
2018-06-14T10:48:23.762Z,1.57
2018-06-14T10:53:26.296Z,1.70
2018-06-14T10:58:28.845Z,1.90
2018-06-14T11:03:31.404Z,1.80
2018-06-14T11:08:34.064Z,1.90
2018-06-14T11:13:36.609Z,2.20
2018-06-14T11:18:39.143Z,2.57
2018-06-14T11:23:41.683Z,2.13
2018-06-14T11:28:44.221Z,1.43
2018-06-14T11:33:46.762Z,1.60
2018-06-14T11:38:49.299Z,1.27
2018-06-14T11:43:51.931Z,2.27
2018-06-14T11:48:54.481Z,1.53
2018-06-14T11:53:57.059Z,1.73
2018-06-14T11:58:59.620Z,1.27
2018-06-14T12:04:02.153Z,1.80
2018-06-14T12:09:04.684Z,2.40
2018-06-14T12:14:07.235Z,1.50
2018-06-14T12:19:09.792Z,1.87
2018-06-14T12:24:12.351Z,1.93
2018-06-14T12:29:14.884Z,1.90
2018-06-14T12:34:17.443Z,1.90
2018-06-14T12:39:19.987Z,1.77
2018-06-14T12:44:22.533Z,1.90
2018-06-14T12:49:25.848Z,1.90
2018-06-14T12:54:29.157Z,1.83
2018-06-14T12:59:31.719Z,1.40
2018-06-14T13:04:34.261Z,1.90
2018-06-14T13:09:37.586Z,1.40
2018-06-14T13:14:40.131Z,1.53
2018-06-14T13:19:42.695Z,1.97
2018-06-14T13:24:45.228Z,1.57
2018-06-14T13:29:47.774Z,1.60
2018-06-14T13:34:50.352Z,2.20
2018-06-14T13:39:52.975Z,1.53
2018-06-14T13:44:55.527Z,1.67
2018-06-14T13:49:58.064Z,1.90
2018-06-14T13:55:00.607Z,2.00
2018-06-14T14:00:03.145Z,1.50
2018-06-14T14:05:05.701Z,2.30
2018-06-14T14:10:08.223Z,1.57
2018-06-14T14:15:10.748Z,1.83
2018-06-14T14:20:13.284Z,1.90
2018-06-14T14:25:15.915Z,1.63
2018-06-14T14:30:18.449Z,1.77
2018-06-14T14:35:22.028Z,1.77
2018-06-14T14:40:24.629Z,1.97
2018-06-14T14:45:27.169Z,1.77
2018-06-14T14:50:29.734Z,1.63
2018-06-14T14:55:32.985Z,1.80
2018-06-14T15:00:35.513Z,1.63
2018-06-14T15:05:38.063Z,1.80
2018-06-14T15:10:40.626Z,1.70
2018-06-14T15:15:43.167Z,2.03
2018-06-14T15:20:45.711Z,1.50
2018-06-14T15:25:48.247Z,1.30
2018-06-14T15:30:50.806Z,1.73
2018-06-14T15:35:53.349Z,1.60
2018-06-14T15:40:55.884Z,1.60
2018-06-14T15:45:58.469Z,1.67
2018-06-14T15:51:01.024Z,1.57
2018-06-14T15:56:03.557Z,1.73
2018-06-14T16:01:06.101Z,1.67
2018-06-14T16:06:08.638Z,1.77
2018-06-14T16:11:11.194Z,1.70
2018-06-14T16:16:13.745Z,1.73
2018-06-14T16:21:16.372Z,1.40
2018-06-14T16:26:18.861Z,2.30
2018-06-14T16:31:21.384Z,2.30
2018-06-14T16:36:23.920Z,1.83
2018-06-14T16:41:26.902Z,1.80
2018-06-14T16:46:29.463Z,1.40
2018-06-14T16:51:32.026Z,1.70
2018-06-14T16:56:34.574Z,1.53
2018-06-14T17:01:37.161Z,2.70
2018-06-14T17:06:40.577Z,2.00
2018-06-14T17:11:43.180Z,1.63
2018-06-14T17:16:46.492Z,1.40
2018-06-14T17:21:49.024Z,1.50
2018-06-14T17:26:51.612Z,1.63
2018-06-14T17:31:54.161Z,1.30
2018-06-14T17:36:57.679Z,1.10
2018-06-14T17:42:00.426Z,1.70
2018-06-14T17:47:03.810Z,1.40
2018-06-14T17:52:07.098Z,1.50
2018-06-14T17:57:09.643Z,1.40
2018-06-14T18:02:12.172Z,1.00
2018-06-14T18:07:14.751Z,1.77
2018-06-14T18:12:17.319Z,1.10
2018-06-14T18:17:19.880Z,1.20
2018-06-14T18:22:22.439Z,1.23
2018-06-14T18:27:24.983Z,1.00
2018-06-14T18:32:27.517Z,1.93
2018-06-14T18:37:30.977Z,1.30
2018-06-14T18:42:33.556Z,1.10
2018-06-14T18:47:36.148Z,1.00
2018-06-14T18:52:38.702Z,1.40
2018-06-14T18:57:42.027Z,1.60
2018-06-14T19:02:44.586Z,1.30
2018-06-14T19:07:47.132Z,1.23
2018-06-14T19:12:49.700Z,1.20
2018-06-14T19:17:52.302Z,1.17
2018-06-14T19:22:54.868Z,1.53
2018-06-14T19:27:57.409Z,1.40
2018-06-14T19:33:01.178Z,1.53
2018-06-14T19:38:03.786Z,1.70
2018-06-14T19:43:07.699Z,1.47
2018-06-14T19:48:10.428Z,1.60
2018-06-14T19:53:13.025Z,1.40
2018-06-14T19:58:17.934Z,3.23
2018-06-14T20:03:20.524Z,1.60
2018-06-14T20:08:23.117Z,1.80
2018-06-14T20:13:25.669Z,1.53
2018-06-14T20:18:28.224Z,1.50
2018-06-14T20:23:30.778Z,1.73
2018-06-14T20:28:33.320Z,1.53
2018-06-14T20:33:35.866Z,1.30
2018-06-14T20:38:39.181Z,1.70
2018-06-14T20:43:42.515Z,1.50
2018-06-14T20:48:45.105Z,1.17
2018-06-14T20:53:47.637Z,1.23
2018-06-14T20:58:50.206Z,1.57
2018-06-14T21:03:52.741Z,1.60
2018-06-14T21:08:55.281Z,1.20
2018-06-14T21:13:57.848Z,1.40
2018-06-14T21:19:00.396Z,1.43
2018-06-14T21:24:02.937Z,1.37
2018-06-14T21:29:05.476Z,1.40
2018-06-14T21:34:08.027Z,2.07
2018-06-14T21:39:10.603Z,4.37
2018-06-14T21:44:13.137Z,2.23
2018-06-14T21:49:15.696Z,1.97
2018-06-14T21:54:19.013Z,1.87
2018-06-14T21:59:21.567Z,1.73
2018-06-14T22:04:24.118Z,1.30
2018-06-14T22:09:26.662Z,1.90
2018-06-14T22:14:29.213Z,1.50
2018-06-14T22:19:31.884Z,1.73
2018-06-14T22:24:34.473Z,1.50
2018-06-14T22:29:36.999Z,1.77
2018-06-14T22:35:05.077Z,2.40
2018-06-14T22:40:07.630Z,1.83
2018-06-14T22:45:10.185Z,1.40
2018-06-14T22:50:12.729Z,1.93
2018-06-14T22:55:15.324Z,2.63
2018-06-14T23:00:17.899Z,1.50
2018-06-14T23:05:21.526Z,1.50
2018-06-14T23:10:47.695Z,1.57
2018-06-14T23:15:50.262Z,2.20
2018-06-14T23:20:53.639Z,1.60
2018-06-14T23:25:56.214Z,1.83
2018-06-14T23:30:59.557Z,1.83
2018-06-14T23:36:02.102Z,2.20
2018-06-14T23:41:04.639Z,2.67
2018-06-14T23:46:07.189Z,2.17
2018-06-14T23:51:09.756Z,2.13
2018-06-14T23:56:12.292Z,1.57
